Time;durP1;ratioP1;P1;durP2;ratioP2;P2;SDS_P1;SDS_P2;PMS_P1;PMS_P2;Temp;Humidity;BMP_temperature;BMP_pressure;BME280_temperature;BME280_humidity;BME280_pressure;Samples;Min_cycle;Max_cycle;Signal;HPM_P1;HPM_P2
2021/04/10 00:01:23;;;;;;;6.32;1.85;;;;;;;11.46;36.32;101836.38;5094809;28;20038;-70
2021/04/10 00:03:50;;;;;;;5.25;1.25;;;;;;;11.47;34.64;101867.25;5112973;28;20074;-70
2021/04/10 00:06:17;;;;;;;8.90;1.85;;;;;;;11.45;35.71;101858.38;5113018;28;20035;-70
2021/04/10 00:08:44;;;;;;;5.82;1.60;;;;;;;11.43;37.87;101857.41;5094234;28;20044;-70
2021/04/10 00:11:11;;;;;;;12.55;2.22;;;;;;;11.42;39.41;101859.16;5092874;28;20039;-70
2021/04/10 00:13:40;;;;;;;7.63;1.55;;;;;;;11.38;38.66;101851.09;5110857;28;20035;-70
2021/04/10 00:16:07;;;;;;;5.57;1.40;;;;;;;11.36;37.02;101860.72;5101108;28;20036;-70
2021/04/10 00:18:34;;;;;;;4.53;1.38;;;;;;;11.36;35.56;101860.72;5108458;28;20032;-70
2021/04/10 00:21:01;;;;;;;8.00;1.80;;;;;;;11.38;34.23;101835.25;5110280;28;20036;-70
2021/04/10 00:23:29;;;;;;;5.25;1.40;;;;;;;11.39;35.34;101837.03;5098188;28;20040;-69
2021/04/10 00:25:56;;;;;;;9.82;1.85;;;;;;;11.40;36.88;101846.75;5092524;28;20051;-70
2021/04/10 00:28:23;;;;;;;5.38;1.48;;;;;;;11.34;37.43;101842.19;5075232;28;20072;-69
2021/04/10 00:30:51;;;;;;;4.20;1.52;;;;;;;11.33;36.98;101834.22;5093671;28;20623;-70
2021/04/10 00:33:18;;;;;;;6.32;1.48;;;;;;;11.33;36.45;101844.78;5107055;28;20557;-70
2021/04/10 00:35:45;;;;;;;4.20;1.20;;;;;;;11.33;36.80;101821.00;5095862;28;20477;-70
2021/04/10 00:38:12;;;;;;;9.13;1.30;;;;;;;11.36;37.01;101829.91;5095674;28;20393;-70
2021/04/10 00:40:39;;;;;;;6.38;1.83;;;;;;;11.34;37.69;101838.66;5092203;28;20458;-69
2021/04/10 00:43:06;;;;;;;8.35;2.08;;;;;;;11.34;37.88;101828.09;5102011;28;20032;-69
2021/04/10 00:45:33;;;;;;;9.02;1.70;;;;;;;11.31;37.68;101841.19;5109836;28;20533;-70
2021/04/10 00:48:01;;;;;;;5.57;1.67;;;;;;;11.31;37.21;101842.09;5112572;28;20036;-69
2021/04/10 00:50:28;;;;;;;9.10;1.73;;;;;;;11.31;36.88;101822.69;5112160;28;20043;-69
2021/04/10 00:52:55;;;;;;;5.68;1.70;;;;;;;11.28;36.56;101851.69;5100356;28;20043;-69
2021/04/10 00:55:23;;;;;;;8.23;1.88;;;;;;;11.23;36.40;101843.59;5097849;28;20385;-69
2021/04/10 00:57:50;;;;;;;5.47;1.63;;;;;;;11.21;37.44;101847.06;5099901;28;20547;-70
2021/04/10 01:00:19;;;;;;;5.13;1.40;;;;;;;11.21;38.22;101836.50;5092831;28;20062;-70
2021/04/10 01:02:47;;;;;;;6.78;1.23;;;;;;;11.12;38.57;101848.56;5110635;28;20044;-69
2021/04/10 01:05:16;;;;;;;10.43;1.65;;;;;;;11.13;39.26;101837.16;5111798;28;20039;-70
2021/04/10 01:07:43;;;;;;;12.13;2.28;;;;;;;11.16;40.00;101841.63;5106230;28;20044;-70
2021/04/10 01:10:12;;;;;;;13.07;3.00;;;;;;;11.14;40.22;101854.81;5104265;28;20031;-70
2021/04/10 01:12:51;;;;;;;11.70;2.13;;;;;;;11.17;40.63;101830.22;5089763;28;20189;-70
2021/04/10 01:15:25;;;;;;;8.45;1.92;;;;;;;11.18;41.45;101835.53;5107646;28;20039;-70
2021/04/10 01:17:56;;;;;;;7.78;1.80;;;;;;;11.22;41.71;101822.44;5104750;28;20084;-70
2021/04/10 01:20:43;;;;;;;5.13;1.80;;;;;;;11.22;41.44;101818.06;5092296;28;20040;-70
2021/04/10 01:24:00;;;;;;;12.15;2.33;;;;;;;11.23;41.68;101827.75;5111497;28;20040;-69
2021/04/10 01:26:44;;;;;;;10.07;1.90;;;;;;;11.20;41.79;101825.03;5080545;28;20048;-70
2021/04/10 01:29:15;;;;;;;10.77;2.65;;;;;;;11.24;42.70;101826.91;5105529;28;20040;-70
2021/04/10 01:31:44;;;;;;;7.78;2.50;;;;;;;11.26;42.75;101822.56;5090895;28;20036;-70
2021/04/10 01:34:14;;;;;;;13.65;2.67;;;;;;;11.24;42.81;101826.91;5090969;28;20064;-70
2021/04/10 01:36:45;;;;;;;7.13;1.58;;;;;;;11.21;42.75;101833.84;5099805;28;20032;-70
2021/04/10 01:39:14;;;;;;;7.10;1.77;;;;;;;11.20;41.97;101835.59;5089319;28;20096;-70
2021/04/10 01:41:45;;;;;;;5.45;1.83;;;;;;;11.16;42.21;101808.16;5075424;28;20061;-70
2021/04/10 01:44:15;;;;;;;10.38;2.58;;;;;;;11.17;41.73;101833.75;5111672;28;20065;-70
2021/04/10 01:46:43;;;;;;;8.32;1.63;;;;;;;11.22;40.77;101839.19;5104748;28;20126;-69
2021/04/10 01:49:10;;;;;;;12.18;2.35;;;;;;;11.22;40.46;101831.25;5098232;28;20442;-70
2021/04/10 01:51:39;;;;;;;6.55;1.77;;;;;;;11.22;40.92;101843.59;5091067;28;20469;-70
2021/04/10 01:54:08;;;;;;;9.45;1.48;;;;;;;11.17;41.10;101843.41;5093095;28;20182;-70
2021/04/10 01:56:37;;;;;;;6.45;1.58;;;;;;;11.14;40.95;101843.34;5100723;28;20036;-69
2021/04/10 01:59:06;;;;;;;6.40;2.15;;;;;;;11.11;40.97;101835.31;5093256;28;20036;-69
2021/04/10 02:01:34;;;;;;;7.93;1.70;;;;;;;11.11;40.73;101830.91;5109822;28;20032;-69
2021/04/10 02:04:03;;;;;;;4.10;1.50;;;;;;;11.08;40.32;101830.84;5106485;28;20028;-69
2021/04/10 02:06:32;;;;;;;8.68;2.28;;;;;;;11.12;40.09;101847.66;5090580;28;20032;-69
2021/04/10 02:08:59;;;;;;;5.55;1.48;;;;;;;11.11;40.13;101841.50;5100979;28;20051;-69
2021/04/10 02:11:27;;;;;;;7.47;1.40;;;;;;;11.07;40.02;101849.28;5111015;28;20042;-70
2021/04/10 02:13:55;;;;;;;5.43;1.42;;;;;;;11.01;40.19;101839.44;5111431;28;20530;-69
2021/04/10 02:16:22;;;;;;;8.73;1.95;;;;;;;10.97;38.98;101847.19;5100458;28;20091;-69
2021/04/10 02:18:51;;;;;;;6.53;1.55;;;;;;;11.03;39.15;101832.41;5115168;28;20046;-70
2021/04/10 02:21:26;;;;;;;7.95;1.65;;;;;;;11.08;39.50;101845.78;5114959;28;20042;-70
2021/04/10 02:23:53;;;;;;;8.27;2.58;;;;;;;11.13;40.63;101845.09;5095104;28;20036;-69
2021/04/10 02:26:20;;;;;;;7.15;1.60;;;;;;;11.14;40.70;101823.09;5114428;28;20031;-69
2021/04/10 02:28:47;;;;;;;7.22;1.85;;;;;;;11.13;40.23;101813.38;5105602;28;20036;-70
2021/04/10 02:31:22;;;;;;;6.85;1.77;;;;;;;11.13;39.85;101837.16;5104244;28;20113;-69
2021/04/10 02:33:55;;;;;;;8.98;2.00;;;;;;;11.07;39.53;101826.41;5115058;28;20426;-70
2021/04/10 02:36:24;;;;;;;7.80;1.90;;;;;;;11.01;40.01;101834.16;5113402;28;20046;-70
2021/04/10 02:38:57;;;;;;;8.25;2.00;;;;;;;11.01;39.59;101835.88;5114468;28;20499;-69
2021/04/10 02:41:26;;;;;;;10.32;1.90;;;;;;;10.99;38.79;101822.63;5095470;28;20032;-69
2021/04/10 02:43:56;;;;;;;5.28;1.10;;;;;;;10.95;38.48;101827.78;5108719;28;20043;-70
2021/04/10 02:46:27;;;;;;;8.52;2.70;;;;;;;10.96;37.98;101833.06;5114279;28;20047;-69
2021/04/10 02:49:00;;;;;;;5.50;2.22;;;;;;;11.00;37.77;101828.81;5110281;28;20036;-70
2021/04/10 02:51:34;;;;;;;7.95;2.03;;;;;;;10.97;38.42;101837.53;5094630;28;20442;-69
2021/04/10 02:54:02;;;;;;;7.72;1.88;;;;;;;10.97;38.66;101823.41;5094210;28;20034;-70
2021/04/10 02:56:32;;;;;;;8.18;2.00;;;;;;;11.01;39.00;101831.50;5101596;28;20046;-69
2021/04/10 02:59:01;;;;;;;8.07;1.90;;;;;;;11.05;39.43;101811.34;5101064;28;20033;-69
2021/04/10 03:01:31;;;;;;;9.10;2.03;;;;;;;11.04;40.04;101831.56;5094030;28;20374;-69
2021/04/10 03:04:02;;;;;;;8.05;1.88;;;;;;;10.95;40.64;101820.75;5094966;28;20036;-69
2021/04/10 03:06:30;;;;;;;10.77;2.42;;;;;;;10.96;41.07;101825.16;5094227;28;20485;-69
2021/04/10 03:08:58;;;;;;;12.25;3.03;;;;;;;10.92;40.29;101836.47;5113193;28;20040;-69
2021/04/10 03:11:25;;;;;;;4.05;1.40;;;;;;;10.82;39.86;101823.84;5111803;28;20052;-70
2021/04/10 03:13:52;;;;;;;6.00;1.55;;;;;;;10.84;39.29;101830.06;5096393;28;20047;-69
2021/04/10 03:16:21;;;;;;;4.38;1.77;;;;;;;10.87;39.54;101838.09;5094600;28;20086;-70
2021/04/10 03:18:50;;;;;;;11.68;2.08;;;;;;;10.93;40.46;101834.75;5109881;28;20028;-70
2021/04/10 03:21:19;;;;;;;8.60;2.35;;;;;;;10.93;40.21;101835.66;5113866;28;20063;-69
2021/04/10 03:23:46;;;;;;;9.18;2.15;;;;;;;10.94;38.91;101845.38;5101868;28;20050;-70
2021/04/10 03:26:14;;;;;;;3.25;1.23;;;;;;;11.02;38.38;101835.94;5092875;28;20042;-70
2021/04/10 03:28:42;;;;;;;6.60;1.50;;;;;;;11.01;39.21;101820.03;5094456;28;20127;-70
2021/04/10 03:31:10;;;;;;;7.90;1.67;;;;;;;10.96;39.93;101829.56;5113064;28;20096;-70
2021/04/10 03:33:38;;;;;;;7.00;1.85;;;;;;;10.93;40.60;101842.66;5114128;28;20370;-69
2021/04/10 03:36:06;;;;;;;6.57;1.98;;;;;;;10.90;40.52;101832.88;5101811;28;20071;-70
2021/04/10 03:38:34;;;;;;;8.82;1.63;;;;;;;10.89;40.90;101832.88;5092926;28;20374;-70
2021/04/10 03:41:06;;;;;;;6.32;1.70;;;;;;;10.89;41.19;101841.69;5093255;28;20040;-70
2021/04/10 03:43:33;;;;;;;6.68;1.88;;;;;;;10.88;41.06;101839.91;5072165;28;20040;-70
2021/04/10 03:46:02;;;;;;;10.25;1.73;;;;;;;10.84;41.29;101840.63;5094480;28;20139;-70
2021/04/10 03:48:30;;;;;;;6.30;1.73;;;;;;;10.83;41.60;101841.47;5094111;28;20031;-70
2021/04/10 03:50:57;;;;;;;9.02;1.70;;;;;;;10.84;41.73;101842.38;5093322;28;20036;-69
2021/04/10 03:53:25;;;;;;;7.07;1.25;;;;;;;10.87;41.62;101838.09;5092830;28;20173;-69
2021/04/10 03:55:53;;;;;;;8.45;1.77;;;;;;;10.94;41.58;101858.56;5093471;28;20131;-70
2021/04/10 03:58:20;;;;;;;7.93;1.75;;;;;;;10.99;41.50;101851.69;5092752;28;20040;-70
2021/04/10 04:00:47;;;;;;;7.43;1.55;;;;;;;11.03;41.65;101856.19;5094861;28;20051;-69
2021/04/10 04:03:14;;;;;;;6.65;1.75;;;;;;;11.07;41.86;101852.81;5092825;28;20036;-69
2021/04/10 04:05:41;;;;;;;7.05;2.97;;;;;;;11.09;42.23;101866.97;5092989;28;20072;-70
2021/04/10 04:08:08;;;;;;;8.85;2.15;;;;;;;11.16;42.73;101861.00;5111831;28;20556;-70
2021/04/10 04:10:35;;;;;;;7.25;2.05;;;;;;;11.26;42.89;101848.09;5106804;28;20488;-70
2021/04/10 04:13:04;;;;;;;5.50;1.70;;;;;;;11.35;42.65;101859.84;5105671;28;20396;-69
2021/04/10 04:15:30;;;;;;;15.82;2.30;;;;;;;11.42;42.28;101864.44;5107127;28;20078;-69
2021/04/10 04:17:57;;;;;;;8.13;1.73;;;;;;;11.52;42.20;101861.25;5110392;28;20041;-70
2021/04/10 04:20:25;;;;;;;11.82;2.08;;;;;;;11.66;42.15;101856.34;5108106;28;20035;-70
2021/04/10 04:22:52;;;;;;;6.80;2.08;;;;;;;11.79;41.86;101866.47;5111973;28;20050;-70
2021/04/10 04:25:20;;;;;;;8.02;1.83;;;;;;;11.89;40.77;101868.50;5109655;28;20050;-70
2021/04/10 04:27:47;;;;;;;4.93;1.65;;;;;;;11.94;40.23;101876.59;5110858;28;20035;-70
2021/04/10 04:30:16;;;;;;;7.22;1.65;;;;;;;12.06;40.24;101881.31;5109524;28;20050;-70
2021/04/10 04:32:43;;;;;;;6.93;1.90;;;;;;;12.16;40.44;101878.06;5107793;28;20050;-69
2021/04/10 04:35:11;;;;;;;11.23;1.85;;;;;;;12.27;40.66;101885.41;5112543;28;20035;-70
2021/04/10 04:37:39;;;;;;;6.28;1.52;;;;;;;12.41;40.37;101880.50;5101501;28;20373;-70
2021/04/10 04:40:07;;;;;;;10.15;1.90;;;;;;;12.58;40.64;101895.09;5111234;28;20476;-69
2021/04/10 04:42:35;;;;;;;12.20;2.13;;;;;;;12.66;40.86;101890.88;5110480;28;20032;-69
2021/04/10 04:45:02;;;;;;;8.20;1.77;;;;;;;12.74;40.25;101878.69;5112474;28;20046;-69
2021/04/10 04:47:30;;;;;;;7.63;1.60;;;;;;;12.83;39.79;101895.69;5109051;28;20035;-70
2021/04/10 04:49:57;;;;;;;7.53;1.90;;;;;;;12.88;39.27;101876.38;5095850;28;20047;-70
2021/04/10 04:55:02;;;;;;;7.45;2.08;;;;;;;13.10;39.48;101889.31;5053181;22;20049;-74
2021/04/10 04:57:30;;;;;;;7.75;1.35;;;;;;;13.20;39.15;101894.84;5028544;28;20045;-74
2021/04/10 04:59:57;;;;;;;5.15;1.55;;;;;;;13.21;38.57;101888.66;5029543;28;20525;-73
2021/04/10 05:02:25;;;;;;;5.47;1.73;;;;;;;13.26;38.16;101892.34;5029841;28;20045;-74
2021/04/10 05:04:53;;;;;;;7.97;1.55;;;;;;;13.27;38.13;101910.03;5029148;28;20060;-74
2021/04/10 05:07:20;;;;;;;4.90;1.02;;;;;;;13.42;38.22;101910.38;5029230;28;20041;-74
2021/04/10 05:09:47;;;;;;;4.78;1.40;;;;;;;13.45;37.65;101902.50;5029393;28;20052;-74
2021/04/10 05:12:14;;;;;;;7.25;2.13;;;;;;;13.26;37.97;101882.59;5012290;28;20041;-74
2021/04/10 05:14:41;;;;;;;6.25;1.55;;;;;;;13.19;37.61;101908.97;5028648;28;20041;-74
2021/04/10 05:17:08;;;;;;;5.72;1.25;;;;;;;13.41;37.38;101904.19;5028866;28;20122;-74
2021/04/10 05:19:35;;;;;;;6.22;1.60;;;;;;;13.59;37.82;101887.75;5028904;28;20049;-74
2021/04/10 05:22:04;;;;;;;4.65;1.38;;;;;;;13.73;37.55;101911.94;5029227;28;20037;-74
2021/04/10 05:24:31;;;;;;;6.45;1.42;;;;;;;13.92;37.56;101883.16;5029488;28;20056;-74
2021/04/10 05:26:58;;;;;;;9.20;1.85;;;;;;;14.02;37.79;101893.97;5030209;28;20049;-74
2021/04/10 05:29:25;;;;;;;6.72;1.48;;;;;;;14.19;37.13;101901.38;5026201;28;20053;-74
2021/04/10 05:31:52;;;;;;;6.18;1.38;;;;;;;14.22;36.02;101888.19;5028408;28;20036;-74
2021/04/10 05:34:19;;;;;;;2.80;1.20;;;;;;;14.31;35.84;101890.09;5028914;28;20040;-74
2021/04/10 05:36:47;;;;;;;8.02;1.40;;;;;;;14.40;34.87;101900.03;5028832;28;20041;-74
2021/04/10 05:39:16;;;;;;;5.45;1.52;;;;;;;14.33;32.76;101860.03;5028829;28;20041;-75
2021/04/10 05:41:43;;;;;;;8.65;1.77;;;;;;;14.35;32.96;101892.84;5029108;28;20044;-76
2021/04/10 05:44:10;;;;;;;5.38;1.15;;;;;;;14.52;33.16;101905.56;5028219;28;20041;-74
2021/04/10 05:46:37;;;;;;;8.73;1.20;;;;;;;14.66;33.20;101885.44;5028666;28;20041;-75
2021/04/10 05:49:05;;;;;;;6.50;1.33;;;;;;;14.68;32.44;101895.25;5027323;28;20049;-75
2021/04/10 05:51:31;;;;;;;8.23;1.80;;;;;;;14.61;32.80;101897.75;5026986;28;20032;-75
2021/04/10 05:53:58;;;;;;;7.28;1.75;;;;;;;14.76;33.36;101887.41;5027962;28;20141;-74
2021/04/10 05:56:27;;;;;;;6.25;1.70;;;;;;;14.98;33.50;101885.97;5027550;28;20043;-75
2021/04/10 05:58:54;;;;;;;6.28;1.38;;;;;;;15.04;33.05;101883.38;5028290;28;20504;-76
2021/04/10 06:01:21;;;;;;;4.97;0.93;;;;;;;14.96;32.49;101906.34;5028352;28;20402;-76
2021/04/10 06:03:48;;;;;;;7.97;1.80;;;;;;;14.99;32.57;101907.25;5028805;28;20130;-76
2021/04/10 06:06:15;;;;;;;10.35;1.88;;;;;;;15.13;31.45;101902.16;5028485;28;20045;-75
2021/04/10 06:08:42;;;;;;;6.20;1.65;;;;;;;15.11;31.35;101912.78;5028436;28;20052;-76
2021/04/10 06:11:11;;;;;;;8.85;1.75;;;;;;;15.19;31.57;101906.66;5028032;28;20056;-75
2021/04/10 06:13:39;;;;;;;6.57;1.50;;;;;;;15.28;31.14;101921.03;5028232;28;20604;-75
2021/04/10 06:16:07;;;;;;;3.95;1.20;;;;;;;15.34;31.54;101912.22;5027925;28;20176;-75
2021/04/10 06:18:35;;;;;;;5.75;2.75;;;;;;;15.62;32.13;101922.41;5028103;28;20052;-74
2021/04/10 06:21:02;;;;;;;5.25;2.25;;;;;;;15.87;31.89;101927.22;5027816;28;20072;-75
2021/04/10 06:23:29;;;;;;;3.40;1.27;;;;;;;15.97;31.92;101908.66;5027642;28;20045;-75
2021/04/10 06:25:56;;;;;;;6.18;1.40;;;;;;;16.07;31.96;101921.22;5027404;28;20549;-75
2021/04/10 06:28:23;;;;;;;6.55;2.25;;;;;;;16.30;32.09;101911.69;5027996;28;20074;-76
2021/04/10 06:30:51;;;;;;;6.60;1.23;;;;;;;16.43;31.64;101883.41;5028127;28;20098;-76
2021/04/10 06:33:20;;;;;;;5.72;1.67;;;;;;;16.52;31.58;101919.06;5026779;28;20053;-75
2021/04/10 06:35:47;;;;;;;6.68;1.70;;;;;;;16.42;31.52;101916.25;5028855;28;20040;-73
2021/04/10 06:38:15;;;;;;;7.55;1.50;;;;;;;16.41;31.66;101906.50;5024274;28;20048;-74
2021/04/10 06:40:44;;;;;;;7.53;1.48;;;;;;;16.51;31.50;101893.28;5008096;28;20048;-74
2021/04/10 06:43:13;;;;;;;8.18;1.70;;;;;;;16.73;31.53;101943.28;5025333;28;20045;-74
2021/04/10 06:45:41;;;;;;;7.65;1.33;;;;;;;16.82;30.92;101937.13;5024708;28;20045;-74
2021/04/10 06:48:14;;;;;;;3.55;1.17;;;;;;;16.87;30.33;101942.53;5025206;28;20588;-74
2021/04/10 06:50:43;;;;;;;7.60;1.90;;;;;;;16.93;30.21;101950.59;5023993;28;20044;-74
2021/04/10 06:53:15;;;;;;;6.45;1.80;;;;;;;16.40;30.48;101926.03;5027895;28;20401;-74
2021/04/10 06:55:49;;;;;;;11.05;1.63;;;;;;;16.31;30.99;101946.38;5027691;28;20041;-73
2021/04/10 06:58:21;;;;;;;8.90;1.48;;;;;;;16.71;30.53;101960.16;5027799;28;20045;-74
2021/04/10 07:00:53;;;;;;;6.05;1.92;;;;;;;17.04;30.39;101972.91;5028527;28;20402;-74
2021/04/10 07:03:22;;;;;;;4.70;1.50;;;;;;;17.21;30.26;101975.69;5031386;28;20056;-75
2021/04/10 07:05:50;;;;;;;10.90;1.73;;;;;;;17.17;29.88;101969.44;5030445;28;20098;-75
2021/04/10 07:08:18;;;;;;;6.55;1.40;;;;;;;17.21;30.18;101963.25;5030840;28;20037;-74
2021/04/10 07:10:45;;;;;;;5.43;1.40;;;;;;;17.36;29.57;101979.38;5030655;28;20689;-74
2021/04/10 07:13:12;;;;;;;4.88;1.48;;;;;;;17.31;29.18;101962.44;5030903;28;20045;-74
2021/04/10 07:15:40;;;;;;;4.32;1.33;;;;;;;16.95;29.03;101978.16;5029038;28;20045;-73
2021/04/10 07:18:07;;;;;;;3.80;1.30;;;;;;;17.04;29.33;101976.47;5030667;28;20175;-73
2021/04/10 07:20:37;;;;;;;6.63;1.38;;;;;;;17.20;29.34;101987.28;5030775;28;20395;-74
2021/04/10 07:23:05;;;;;;;6.93;1.42;;;;;;;17.04;29.93;101991.56;5031557;28;20120;-73
2021/04/10 07:25:35;;;;;;;6.35;1.65;;;;;;;16.95;29.47;101987.03;5031095;28;20041;-73
2021/04/10 07:28:24;;;;;;;5.95;1.10;;;;;;;17.11;29.38;102006.75;5029574;28;20064;-74
2021/04/10 07:31:02;;;;;;;5.20;1.27;;;;;;;17.34;29.26;101997.16;5030460;28;20124;-74
2021/04/10 07:33:31;;;;;;;3.97;1.25;;;;;;;17.32;28.78;101993.59;5031336;28;20033;-74
2021/04/10 07:36:01;;;;;;;3.35;1.67;;;;;;;17.56;28.80;101997.31;5030735;28;20112;-73
2021/04/10 07:38:31;;;;;;;5.28;1.38;;;;;;;17.71;28.24;101986.78;5031263;28;21193;-74
2021/04/10 07:40:59;;;;;;;5.90;1.80;;;;;;;17.57;28.61;101980.41;5030763;28;20045;-74
2021/04/10 07:43:27;;;;;;;8.65;1.23;;;;;;;17.63;28.29;101996.50;5031173;28;20040;-74
2021/04/10 07:46:24;;;;;;;7.43;1.55;;;;;;;17.65;28.50;101974.28;5030546;28;21506;-74
2021/04/10 07:49:03;;;;;;;5.00;1.85;;;;;;;17.90;27.49;101967.28;5030873;28;20037;-74
2021/04/10 07:51:33;;;;;;;5.35;1.50;;;;;;;17.84;27.21;101975.28;5031019;28;20029;-74
2021/04/10 07:54:05;;;;;;;6.88;1.55;;;;;;;17.53;27.33;101964.38;5012911;28;20065;-74
2021/04/10 07:56:53;;;;;;;4.85;1.20;;;;;;;17.66;26.57;101967.13;5029633;28;20048;-73
2021/04/10 07:59:21;;;;;;;7.43;1.20;;;;;;;17.79;26.75;101971.66;5030653;28;20076;-73
2021/04/10 08:01:48;;;;;;;5.00;1.38;;;;;;;18.06;27.24;101960.22;5029923;28;20060;-73
2021/04/10 08:04:16;;;;;;;7.65;2.00;;;;;;;18.28;27.02;101954.97;5028410;28;20037;-74
2021/04/10 08:06:59;;;;;;;3.05;1.40;;;;;;;18.09;26.16;101961.13;5029815;28;20041;-73
2021/04/10 08:09:34;;;;;;;8.00;2.00;;;;;;;17.85;25.91;101939.66;5028697;28;20395;-73
2021/04/10 08:12:06;;;;;;;8.10;2.03;;;;;;;17.75;26.34;101957.41;5029125;28;20033;-73
2021/04/10 08:14:42;;;;;;;4.53;1.70;;;;;;;17.77;26.39;101971.69;5029965;28;20049;-75
2021/04/10 08:17:10;;;;;;;9.23;2.08;;;;;;;17.40;26.38;101958.94;5028354;28;20128;-72
2021/04/10 08:19:39;;;;;;;3.60;1.63;;;;;;;17.45;27.39;101958.09;5029937;28;20044;-74
2021/04/10 08:22:08;;;;;;;4.63;1.83;;;;;;;17.34;26.17;101983.81;5029032;28;20067;-73
2021/04/10 08:24:41;;;;;;;7.60;2.38;;;;;;;17.58;25.79;101977.75;5012409;28;20040;-72
2021/04/10 08:27:11;;;;;;;6.27;1.80;;;;;;;17.76;25.55;101940.50;5030382;28;20044;-72
2021/04/10 08:29:39;;;;;;;9.48;1.92;;;;;;;17.70;25.73;101967.19;5029583;28;20261;-73
2021/04/10 08:32:07;;;;;;;4.28;1.58;;;;;;;18.02;25.65;101979.81;5029283;28;20065;-73
2021/04/10 08:34:35;;;;;;;5.20;1.38;;;;;;;18.26;25.64;101970.09;5029656;28;20052;-73
2021/04/10 08:37:05;;;;;;;6.13;1.50;;;;;;;18.32;25.90;101975.47;5029905;28;20049;-74
2021/04/10 08:39:36;;;;;;;4.93;1.50;;;;;;;17.92;25.53;101992.22;5029263;28;20047;-74
2021/04/10 08:42:05;;;;;;;5.03;1.40;;;;;;;17.92;26.05;101994.88;5029321;28;20103;-73
2021/04/10 08:44:35;;;;;;;3.60;1.50;;;;;;;17.91;26.20;101998.47;5029358;28;20747;-74
2021/04/10 08:47:03;;;;;;;7.35;1.92;;;;;;;18.27;27.21;101992.38;5029329;28;20052;-74
2021/04/10 08:49:34;;;;;;;9.57;2.40;;;;;;;18.28;27.34;102016.47;5029806;28;20539;-74
2021/04/10 08:52:04;;;;;;;6.40;1.10;;;;;;;18.38;26.54;101997.78;5029730;28;20049;-74
2021/04/10 08:54:36;;;;;;;3.90;0.93;;;;;;;18.49;26.39;101998.72;5029616;28;20057;-74
2021/04/10 08:57:08;;;;;;;8.05;1.25;;;;;;;18.61;25.56;101972.91;5029931;28;20128;-75
2021/04/10 08:59:41;;;;;;;3.38;0.93;;;;;;;18.59;25.87;101969.34;5029643;28;20824;-74
2021/04/10 09:02:11;;;;;;;5.13;1.13;;;;;;;18.68;26.21;101977.38;5030237;28;20060;-74
2021/04/10 09:05:12;;;;;;;3.13;0.90;;;;;;;18.80;26.02;101963.13;5028736;28;20698;-74
2021/04/10 09:08:08;;;;;;;6.40;1.30;;;;;;;18.44;26.23;101963.03;4990560;28;20053;-74
2021/04/10 09:10:49;;;;;;;6.18;1.33;;;;;;;18.32;26.80;101959.41;4988889;28;20053;-72
2021/04/10 09:13:32;;;;;;;6.50;1.40;;;;;;;18.41;26.56;101955.91;5018413;28;20056;-74
2021/04/10 09:16:39;;;;;;;4.20;1.15;;;;;;;18.32;26.21;101948.72;5028883;28;21454;-75
2021/04/10 09:19:14;;;;;;;6.97;1.05;;;;;;;18.09;26.51;101944.22;5029327;28;20041;-75
2021/04/10 09:21:44;;;;;;;4.07;1.10;;;;;;;18.30;27.07;101945.19;5029230;28;20048;-74
2021/04/10 09:24:19;;;;;;;5.78;1.40;;;;;;;18.50;27.06;101947.91;5028081;28;20041;-75
2021/04/10 09:27:06;;;;;;;5.35;1.48;;;;;;;18.63;26.68;101943.50;5027109;28;20051;-75
2021/04/10 09:29:58;;;;;;;4.97;1.48;;;;;;;18.70;26.35;101950.66;5028269;28;20441;-75
2021/04/10 09:32:31;;;;;;;4.95;1.20;;;;;;;18.46;27.03;101963.91;5028636;28;20505;-74
2021/04/10 09:34:59;;;;;;;3.20;1.02;;;;;;;18.78;27.07;101958.66;5028442;28;20052;-75
2021/04/10 09:37:49;;;;;;;4.80;1.02;;;;;;;19.21;26.18;101949.75;5028265;28;20100;-76
2021/04/10 09:40:19;;;;;;;6.00;1.95;;;;;;;18.66;25.88;101938.13;5028825;28;20049;-75
2021/04/10 09:42:52;;;;;;;6.20;1.45;;;;;;;18.69;26.50;101955.09;5028637;28;20052;-74
2021/04/10 09:45:29;;;;;;;10.32;1.60;;;;;;;18.86;26.32;101955.09;5028620;28;20580;-75
2021/04/10 09:48:18;;;;;;;5.93;1.30;;;;;;;18.84;26.23;101953.34;5027720;28;20571;-74
2021/04/10 09:50:59;;;;;;;4.82;1.17;;;;;;;18.98;25.75;101956.88;5028174;28;20053;-74
2021/04/10 09:53:27;;;;;;;3.75;1.20;;;;;;;18.82;25.95;101955.13;5010344;28;20545;-74
2021/04/10 09:56:00;;;;;;;6.38;1.63;;;;;;;18.88;26.22;101949.75;5029178;28;20593;-74
2021/04/10 09:58:37;;;;;;;3.33;1.00;;;;;;;18.86;25.96;101935.47;5028972;28;20056;-75
2021/04/10 10:01:07;;;;;;;3.83;0.90;;;;;;;18.71;26.05;101944.38;5029150;28;20042;-75
2021/04/10 10:03:35;;;;;;;8.38;1.35;;;;;;;18.84;25.75;101959.56;5028771;28;20041;-76
2021/04/10 10:06:02;;;;;;;5.40;1.05;;;;;;;18.55;25.82;101956.84;5028721;28;20079;-75
2021/04/10 10:08:34;;;;;;;8.77;1.27;;;;;;;18.84;25.80;101942.63;5010658;28;20757;-76
2021/04/10 10:11:07;;;;;;;6.07;1.55;;;;;;;19.14;25.77;101901.56;5028732;28;20049;-76
2021/04/10 10:13:37;;;;;;;4.35;1.25;;;;;;;19.14;25.70;101949.75;5028731;28;20044;-76
2021/04/10 10:16:04;;;;;;;4.05;1.00;;;;;;;19.26;25.72;101936.34;5028684;28;20993;-75
2021/04/10 10:18:33;;;;;;;4.72;1.60;;;;;;;18.99;25.52;101937.25;5029103;28;20042;-75
2021/04/10 10:21:02;;;;;;;2.40;0.65;;;;;;;19.14;25.59;101939.94;5028977;28;20068;-76
2021/04/10 10:23:31;;;;;;;4.05;1.38;;;;;;;18.60;25.77;101924.75;5028113;28;20045;-75
2021/04/10 10:26:05;;;;;;;8.88;1.58;;;;;;;18.44;27.28;101914.91;5028373;28;20049;-75
2021/04/10 10:28:33;;;;;;;4.63;1.20;;;;;;;18.72;27.58;101914.06;5028655;28;21066;-74
2021/04/10 10:31:06;;;;;;;5.05;1.35;;;;;;;18.56;26.51;101914.97;5026687;28;20049;-76
2021/04/10 10:33:34;;;;;;;4.65;1.00;;;;;;;18.43;26.60;101908.66;5028095;28;20037;-76
2021/04/10 10:36:02;;;;;;;5.53;1.15;;;;;;;18.31;26.84;101917.53;5031568;28;20047;-76
2021/04/10 10:38:33;;;;;;;4.53;1.13;;;;;;;18.40;27.16;101907.75;5031882;28;20046;-74
2021/04/10 10:41:01;;;;;;;3.78;0.85;;;;;;;18.59;27.59;101917.63;5031055;28;20061;-74
2021/04/10 10:43:29;;;;;;;6.78;1.30;;;;;;;18.65;26.55;101910.50;5031804;28;20045;-74
2021/04/10 10:45:58;;;;;;;6.18;1.83;;;;;;;18.61;26.69;101903.38;5031309;28;20076;-74
2021/04/10 10:48:29;;;;;;;7.50;1.60;;;;;;;18.69;26.09;101927.47;5031066;28;20049;-75
2021/04/10 10:51:03;;;;;;;5.35;1.45;;;;;;;18.57;25.80;101900.69;5030898;28;20049;-75
2021/04/10 10:53:33;;;;;;;4.13;0.90;;;;;;;18.54;25.29;101922.03;5031509;28;21695;-75
2021/04/10 10:56:16;;;;;;;6.40;1.15;;;;;;;18.65;25.64;101933.69;5013264;28;20049;-74
2021/04/10 10:58:46;;;;;;;4.35;1.08;;;;;;;18.53;26.74;101906.88;5031438;28;20048;-75
2021/04/10 11:01:19;;;;;;;6.10;1.10;;;;;;;18.22;26.87;101940.69;5032801;28;21642;-75
2021/04/10 11:03:51;;;;;;;9.40;1.70;;;;;;;18.20;27.12;101943.34;5029310;28;20421;-74
2021/04/10 11:06:21;;;;;;;4.60;1.50;;;;;;;18.31;27.44;101946.06;5024906;28;20041;-76
2021/04/10 11:08:51;;;;;;;3.72;0.80;;;;;;;18.43;27.70;101956.81;5029502;28;20037;-76
2021/04/10 11:11:20;;;;;;;5.20;1.55;;;;;;;18.76;27.50;101949.75;5042549;28;20061;-78
2021/04/10 11:13:49;;;;;;;4.90;1.48;;;;;;;18.92;26.61;101930.13;5050595;28;20144;-76
2021/04/10 11:16:17;;;;;;;3.75;0.90;;;;;;;18.99;26.54;101918.53;5050457;28;20041;-77
2021/04/10 11:18:45;;;;;;;4.82;1.17;;;;;;;19.16;26.73;101902.47;5048222;28;20120;-77
2021/04/10 11:21:26;;;;;;;4.03;1.10;;;;;;;19.04;27.03;101924.75;5050674;28;20041;-76
2021/04/10 11:24:14;;;;;;;8.00;1.63;;;;;;;19.27;25.97;101924.75;5039466;28;20498;-77
2021/04/10 11:26:59;;;;;;;6.57;1.30;;;;;;;19.21;26.57;101903.34;5050408;28;20033;-76
2021/04/10 11:29:35;;;;;;;4.13;1.15;;;;;;;19.54;27.25;101908.66;5051138;28;20037;-77
2021/04/10 11:32:17;;;;;;;4.28;1.48;;;;;;;19.56;27.99;101906.00;5050974;28;20033;-78
2021/04/10 11:34:56;;;;;;;6.07;1.20;;;;;;;19.95;27.32;101913.88;5033080;28;20421;-80
2021/04/10 11:37:47;;;;;;;5.32;1.75;;;;;;;20.06;26.66;101901.31;5050352;28;20071;-78
2021/04/10 11:40:26;;;;;;;3.03;0.98;;;;;;;19.80;27.31;101898.75;5041204;28;20041;-78
2021/04/10 11:42:54;;;;;;;6.88;1.60;;;;;;;19.77;27.99;101904.09;5050147;28;20048;-77